createdAt,value
2019-02-22T00:02:47.055Z,8.70
2019-02-22T00:05:17.430Z,8.70
2019-02-22T00:07:47.691Z,8.70
2019-02-22T00:10:17.979Z,8.70
2019-02-22T00:12:48.375Z,8.70
2019-02-22T00:15:18.669Z,8.70
2019-02-22T00:17:49.125Z,8.70
2019-02-22T00:20:19.416Z,8.70
2019-02-22T00:22:50.839Z,8.70
2019-02-22T00:25:21.092Z,8.70
2019-02-22T00:27:51.430Z,8.70
2019-02-22T00:30:21.711Z,8.70
2019-02-22T00:32:52.040Z,8.70
2019-02-22T00:35:22.396Z,8.70
2019-02-22T00:37:52.685Z,8.70
2019-02-22T00:40:23.008Z,8.70
2019-02-22T00:42:53.355Z,8.70
2019-02-22T00:45:23.707Z,8.80
2019-02-22T00:47:54.149Z,8.70
2019-02-22T00:50:24.435Z,8.70
2019-02-22T00:52:54.837Z,8.80
2019-02-22T00:55:25.146Z,8.70
2019-02-22T00:57:57.130Z,8.70
2019-02-22T01:00:27.556Z,8.70
2019-02-22T01:02:57.984Z,8.70
2019-02-22T01:05:28.344Z,8.70
2019-02-22T01:07:58.627Z,8.70
2019-02-22T01:10:31.472Z,8.70
2019-02-22T01:13:02.589Z,8.70
2019-02-22T01:15:33.033Z,8.70
2019-02-22T01:18:03.381Z,8.70
2019-02-22T01:20:33.658Z,8.70
2019-02-22T01:23:04.468Z,8.70
2019-02-22T01:25:34.761Z,8.70
2019-02-22T01:28:05.137Z,8.70
2019-02-22T01:30:37.153Z,8.70
2019-02-22T01:33:07.571Z,8.70
2019-02-22T01:35:37.939Z,8.60
2019-02-22T01:38:08.318Z,8.60
2019-02-22T01:40:43.769Z,8.60
2019-02-22T01:43:10.845Z,8.60
2019-02-22T01:45:41.279Z,8.60
2019-02-22T01:48:11.668Z,8.60
2019-02-22T01:50:42.028Z,8.60
2019-02-22T01:53:12.479Z,8.60
2019-02-22T01:55:42.839Z,8.50
2019-02-22T01:58:13.243Z,8.50
2019-02-22T02:00:43.661Z,8.50
2019-02-22T02:03:14.263Z,8.40
2019-02-22T02:05:44.667Z,8.30
2019-02-22T02:08:15.045Z,8.30
2019-02-22T02:10:53.848Z,8.10
2019-02-22T02:13:17.556Z,8.10
2019-02-22T02:15:47.958Z,8.10
2019-02-22T02:18:18.272Z,8.00
2019-02-22T02:20:48.630Z,7.90
2019-02-22T02:23:18.994Z,7.90
2019-02-22T02:25:49.273Z,7.80
2019-02-22T02:28:19.663Z,7.80
2019-02-22T02:30:50.035Z,7.70
2019-02-22T02:33:20.454Z,7.60
2019-02-22T02:35:52.035Z,7.50
2019-02-22T02:38:25.453Z,7.50
2019-02-22T02:41:08.135Z,7.60
2019-02-22T02:43:27.913Z,7.60
2019-02-22T02:45:58.411Z,7.70
2019-02-22T02:48:31.070Z,7.70
2019-02-22T02:51:01.501Z,7.80
2019-02-22T02:53:31.990Z,7.80
2019-02-22T02:56:02.400Z,7.70
2019-02-22T02:58:32.799Z,7.60
2019-02-22T03:01:03.164Z,7.50
2019-02-22T03:03:35.665Z,7.40
2019-02-22T03:06:11.720Z,7.30
2019-02-22T03:08:42.082Z,7.10
2019-02-22T03:11:20.553Z,7.10
2019-02-22T03:13:45.773Z,7.00
2019-02-22T03:16:16.333Z,6.90
2019-02-22T03:18:46.733Z,6.90
2019-02-22T03:21:17.058Z,6.80
2019-02-22T03:23:47.427Z,6.80
2019-02-22T03:26:17.766Z,6.90
2019-02-22T03:28:48.074Z,7.10
2019-02-22T03:31:18.487Z,7.10
2019-02-22T03:33:48.816Z,7.20
2019-02-22T03:36:19.137Z,7.30
2019-02-22T03:38:49.601Z,7.40
2019-02-22T03:41:31.859Z,7.40
2019-02-22T03:43:51.914Z,7.50
2019-02-22T03:46:22.232Z,7.60
2019-02-22T03:48:52.535Z,7.50
2019-02-22T03:51:22.932Z,7.50
2019-02-22T03:53:58.319Z,7.40
2019-02-22T03:56:28.768Z,7.40
2019-02-22T03:58:59.216Z,7.50
2019-02-22T04:01:29.569Z,7.40
2019-02-22T04:03:59.915Z,7.40
2019-02-22T04:06:30.401Z,7.30
2019-02-22T04:09:00.822Z,7.20
2019-02-22T04:11:44.675Z,7.20
2019-02-22T04:14:04.801Z,7.10
2019-02-22T04:16:35.293Z,7.10
2019-02-22T04:19:05.811Z,7.10
2019-02-22T04:21:36.218Z,7.20
2019-02-22T04:24:06.530Z,7.20
2019-02-22T04:26:36.819Z,7.20
2019-02-22T04:29:07.117Z,7.30
2019-02-22T04:31:37.466Z,7.30
2019-02-22T04:34:07.975Z,7.40
2019-02-22T04:36:38.293Z,7.40
2019-02-22T04:39:08.814Z,7.40
2019-02-22T04:41:39.134Z,7.40
2019-02-22T04:44:09.517Z,7.40
2019-02-22T04:46:39.940Z,7.40
2019-02-22T04:49:10.297Z,7.40
2019-02-22T04:51:40.694Z,7.40
2019-02-22T04:54:13.888Z,7.40
2019-02-22T04:56:45.248Z,7.40
2019-02-22T04:59:15.710Z,7.40
2019-02-22T05:01:48.361Z,7.40
2019-02-22T05:04:18.712Z,7.40
2019-02-22T05:06:49.142Z,7.40
2019-02-22T05:09:19.831Z,7.40
2019-02-22T05:11:50.262Z,7.40
2019-02-22T05:14:20.777Z,7.50
2019-02-22T05:16:51.113Z,7.50
2019-02-22T05:19:21.513Z,7.50
2019-02-22T05:21:51.878Z,7.50
2019-02-22T05:24:22.269Z,7.60
2019-02-22T05:26:52.681Z,7.50
2019-02-22T05:29:22.995Z,7.60
2019-02-22T05:31:54.827Z,7.60
2019-02-22T05:34:25.327Z,7.60
2019-02-22T05:36:55.673Z,7.60
2019-02-22T05:39:26.788Z,7.70
2019-02-22T05:41:57.162Z,7.60
2019-02-22T05:44:28.594Z,7.70
2019-02-22T05:47:00.613Z,7.70
2019-02-22T05:49:31.270Z,7.70
2019-02-22T05:52:01.642Z,7.70
2019-02-22T05:54:32.760Z,7.70
2019-02-22T05:57:03.090Z,7.70
2019-02-22T05:59:33.385Z,7.70
2019-02-22T06:02:03.694Z,7.70
2019-02-22T06:04:33.949Z,7.70
2019-02-22T06:07:04.248Z,7.70
2019-02-22T06:09:34.637Z,7.70
2019-02-22T06:12:04.978Z,7.70
2019-02-22T06:14:35.335Z,7.70
2019-02-22T06:17:14.483Z,7.70
2019-02-22T06:19:39.449Z,7.70
2019-02-22T06:22:09.753Z,7.70
2019-02-22T06:24:40.017Z,7.70
2019-02-22T06:27:10.293Z,7.70
2019-02-22T06:29:41.253Z,7.70
2019-02-22T06:32:11.617Z,7.70
2019-02-22T06:34:41.938Z,7.70
2019-02-22T06:37:13.416Z,7.70
2019-02-22T06:39:43.883Z,7.70
2019-02-22T06:42:14.229Z,7.70
2019-02-22T06:44:44.523Z,7.70
2019-02-22T06:47:14.949Z,7.70
2019-02-22T06:49:45.451Z,7.80
2019-02-22T06:52:15.799Z,7.80
2019-02-22T06:54:46.279Z,7.80
2019-02-22T06:57:16.562Z,7.80
2019-02-22T06:59:48.514Z,7.70
2019-02-22T07:02:24.061Z,7.70
2019-02-22T07:05:50.973Z,7.70
2019-02-22T07:12:56.883Z,7.70
2019-02-22T07:15:27.045Z,7.70
2019-02-22T07:17:58.438Z,7.70
2019-02-22T07:20:28.942Z,7.70
2019-02-22T07:22:59.291Z,7.80
2019-02-22T07:25:29.717Z,7.80
2019-02-22T07:28:00.279Z,7.80
2019-02-22T07:30:30.813Z,7.80
2019-02-22T07:33:01.390Z,7.80
2019-02-22T07:35:32.909Z,7.90
2019-02-22T07:38:03.287Z,7.90
2019-02-22T07:40:33.694Z,7.90
2019-02-22T07:43:08.005Z,7.90
2019-02-22T07:45:35.966Z,7.90
2019-02-22T07:48:06.224Z,8.00
2019-02-22T07:50:36.535Z,8.00
2019-02-22T07:53:06.880Z,8.00
2019-02-22T07:55:37.196Z,8.00
2019-02-22T07:58:08.722Z,8.10
2019-02-22T08:00:39.238Z,8.10
2019-02-22T08:03:09.591Z,8.10
2019-02-22T08:05:40.125Z,8.20
2019-02-22T08:08:10.535Z,8.20
2019-02-22T08:10:43.712Z,8.20
2019-02-22T08:13:19.683Z,8.30
2019-02-22T08:15:46.243Z,8.30
2019-02-22T08:18:16.632Z,8.30
2019-02-22T08:20:47.065Z,8.40
2019-02-22T08:23:17.448Z,8.40
2019-02-22T08:25:48.072Z,8.50
2019-02-22T08:28:25.262Z,8.50
2019-02-22T08:31:06.495Z,8.50
2019-02-22T08:33:38.474Z,8.50
2019-02-22T08:36:08.867Z,8.60
2019-02-22T08:38:39.352Z,8.60
2019-02-22T08:41:09.805Z,8.60
2019-02-22T08:43:40.689Z,8.70
2019-02-22T08:46:11.159Z,8.70
2019-02-22T08:48:43.364Z,8.60
2019-02-22T08:51:16.230Z,8.80
2019-02-22T08:53:46.695Z,8.80
2019-02-22T08:56:17.018Z,8.80
2019-02-22T08:58:48.778Z,8.90
2019-02-22T09:01:20.164Z,8.90
2019-02-22T09:03:51.956Z,9.00
2019-02-22T09:06:22.365Z,9.00
2019-02-22T09:08:53.168Z,9.00
2019-02-22T09:11:23.568Z,9.10
2019-02-22T09:13:54.019Z,9.10
2019-02-22T09:16:24.333Z,9.20
2019-02-22T09:18:54.822Z,9.20
2019-02-22T09:21:25.160Z,9.40
2019-02-22T09:24:01.189Z,9.40
2019-02-22T09:26:31.575Z,9.40
2019-02-22T09:29:02.049Z,9.50
2019-02-22T09:31:33.971Z,9.60
2019-02-22T09:34:04.401Z,9.50
2019-02-22T09:36:35.827Z,9.60
2019-02-22T09:39:06.899Z,9.70
2019-02-22T09:41:38.397Z,9.50
2019-02-22T09:44:09.080Z,9.70
2019-02-22T09:46:39.553Z,9.80
2019-02-22T09:49:09.970Z,9.70
2019-02-22T09:51:41.282Z,9.80
2019-02-22T09:54:12.945Z,9.90
2019-02-22T09:56:43.390Z,9.90
2019-02-22T09:59:13.754Z,9.90
2019-02-22T10:01:45.697Z,10.00
2019-02-22T10:04:16.011Z,10.00
2019-02-22T10:06:46.326Z,10.10
2019-02-22T10:09:16.766Z,10.10
2019-02-22T10:11:47.189Z,10.20
2019-02-22T10:14:17.566Z,10.30
2019-02-22T10:16:47.987Z,10.30
2019-02-22T10:19:18.317Z,10.40
2019-02-22T10:21:48.767Z,10.60
2019-02-22T10:24:19.151Z,10.60
2019-02-22T10:26:49.523Z,10.60
2019-02-22T10:29:19.938Z,10.70
2019-02-22T10:31:50.568Z,10.80
2019-02-22T10:34:20.996Z,10.80
2019-02-22T10:36:51.411Z,10.80
2019-02-22T10:39:21.778Z,10.90
2019-02-22T10:41:52.221Z,10.90
2019-02-22T10:44:24.861Z,10.90
2019-02-22T10:46:55.413Z,11.00
2019-02-22T10:49:26.472Z,11.10
2019-02-22T10:51:56.853Z,11.30
2019-02-22T10:54:29.315Z,11.30
2019-02-22T10:56:59.690Z,11.30
2019-02-22T10:59:30.107Z,11.40
2019-02-22T11:02:00.550Z,11.40
2019-02-22T11:04:30.988Z,11.50
2019-02-22T11:07:03.794Z,11.50
2019-02-22T11:09:34.340Z,11.50
2019-02-22T11:12:04.779Z,11.30
2019-02-22T11:14:36.983Z,11.50
2019-02-22T11:17:07.378Z,11.60
2019-02-22T11:19:37.760Z,11.50
2019-02-22T11:22:08.267Z,11.40
2019-02-22T11:24:38.575Z,11.40
2019-02-22T11:27:08.989Z,11.60
2019-02-22T11:29:39.352Z,11.60
2019-02-22T11:32:09.615Z,11.50
2019-02-22T11:34:39.951Z,11.40
2019-02-22T11:37:11.297Z,11.30
2019-02-22T11:39:41.709Z,11.50
2019-02-22T11:42:12.133Z,11.50
2019-02-22T11:44:42.627Z,11.60
2019-02-22T11:47:13.046Z,11.60
2019-02-22T11:49:43.394Z,11.60
2019-02-22T11:52:13.877Z,11.50
2019-02-22T11:54:44.204Z,11.50
2019-02-22T11:57:45.948Z,11.50
2019-02-22T12:00:17.776Z,11.50
2019-02-22T12:02:48.310Z,11.50
2019-02-22T12:05:20.241Z,11.50
2019-02-22T12:07:50.765Z,11.50
2019-02-22T12:10:21.087Z,11.50
2019-02-22T12:12:51.644Z,11.50
2019-02-22T12:15:22.271Z,11.60
2019-02-22T12:17:52.709Z,11.60
2019-02-22T12:20:23.073Z,11.60
2019-02-22T12:22:53.565Z,11.60
2019-02-22T12:25:23.923Z,11.50
2019-02-22T12:27:55.501Z,11.40
2019-02-22T12:30:25.896Z,11.50
2019-02-22T12:32:56.387Z,11.50
2019-02-22T12:35:26.747Z,11.50
2019-02-22T12:37:57.207Z,11.50
2019-02-22T12:40:30.241Z,11.50
2019-02-22T12:43:00.634Z,11.50
2019-02-22T12:45:30.975Z,11.50
2019-02-22T12:48:01.255Z,11.50
2019-02-22T12:50:31.840Z,11.40
2019-02-22T12:53:02.331Z,11.40
2019-02-22T12:55:32.752Z,11.30
2019-02-22T12:58:03.211Z,11.20
2019-02-22T13:00:34.783Z,11.30
2019-02-22T13:03:06.902Z,11.30
2019-02-22T13:05:37.383Z,11.30
2019-02-22T13:08:07.908Z,11.30
2019-02-22T13:10:38.341Z,11.30
2019-02-22T13:13:08.683Z,11.30
2019-02-22T13:15:39.136Z,11.30
2019-02-22T13:18:09.604Z,11.20
2019-02-22T13:20:40.010Z,11.20
2019-02-22T13:23:11.379Z,11.20
2019-02-22T13:25:41.681Z,11.30
2019-02-22T13:28:12.047Z,11.20
2019-02-22T13:30:42.372Z,11.30
2019-02-22T13:33:12.717Z,11.30
2019-02-22T13:35:42.979Z,11.20
2019-02-22T13:38:13.346Z,11.30
2019-02-22T13:40:43.703Z,11.30
2019-02-22T13:43:14.037Z,11.30
2019-02-22T13:45:44.517Z,11.40
2019-02-22T13:48:14.828Z,11.30
2019-02-22T13:50:45.309Z,11.30
2019-02-22T13:53:15.629Z,11.30
2019-02-22T13:55:47.421Z,11.20
2019-02-22T13:58:17.854Z,11.20
2019-02-22T14:00:48.179Z,11.20
2019-02-22T14:03:18.549Z,11.20
2019-02-22T14:05:48.889Z,11.30
2019-02-22T14:08:19.389Z,11.20
2019-02-22T14:10:49.769Z,11.20
2019-02-22T14:13:20.257Z,11.30
2019-02-22T14:15:52.131Z,11.30
2019-02-22T14:18:23.524Z,11.40
2019-02-22T14:20:53.864Z,11.30
2019-02-22T14:23:24.224Z,11.30
2019-02-22T14:25:54.551Z,11.30
2019-02-22T14:28:24.914Z,11.30
2019-02-22T14:30:55.209Z,11.30
2019-02-22T14:33:25.519Z,11.20
2019-02-22T14:35:55.816Z,11.10
2019-02-22T14:38:26.168Z,11.10
2019-02-22T14:40:56.464Z,11.00
2019-02-22T14:43:26.887Z,11.00
2019-02-22T14:45:57.310Z,11.00
2019-02-22T14:48:28.896Z,11.10
2019-02-22T14:50:59.317Z,11.10
2019-02-22T14:53:29.788Z,11.10
2019-02-22T14:56:00.181Z,11.10
2019-02-22T14:58:32.271Z,11.10
2019-02-22T15:01:02.725Z,11.10
2019-02-22T15:03:40.502Z,11.10
2019-02-22T15:06:11.560Z,11.10
2019-02-22T15:08:42.034Z,11.10
2019-02-22T15:11:12.662Z,11.10
2019-02-22T15:13:44.781Z,11.00
2019-02-22T15:16:34.222Z,11.00
2019-02-22T15:19:04.951Z,11.00
2019-02-22T15:21:37.412Z,11.00
2019-02-22T15:24:07.896Z,11.00
2019-02-22T15:26:38.284Z,10.90
2019-02-22T15:29:10.345Z,10.90
2019-02-22T15:31:40.941Z,10.90
2019-02-22T15:34:13.926Z,10.80
2019-02-22T15:36:48.343Z,10.90
2019-02-22T15:39:21.984Z,10.80
2019-02-22T15:41:52.551Z,10.80
2019-02-22T15:44:24.056Z,10.80
2019-02-22T15:46:54.580Z,10.80
2019-02-22T15:49:25.344Z,10.80
2019-02-22T15:51:55.837Z,10.80
2019-02-22T15:54:26.332Z,10.80
2019-02-22T15:56:56.830Z,10.80
2019-02-22T15:59:27.455Z,10.70
2019-02-22T16:01:58.114Z,10.70
2019-02-22T16:04:34.361Z,10.70
2019-02-22T16:07:05.813Z,10.70
2019-02-22T16:09:36.331Z,10.70
2019-02-22T16:12:06.912Z,10.70
2019-02-22T16:14:40.249Z,10.60
2019-02-22T16:17:11.852Z,10.70
2019-02-22T16:19:43.817Z,10.60
2019-02-22T16:22:14.258Z,10.60
2019-02-22T16:24:47.426Z,10.60
2019-02-22T16:27:20.173Z,10.60
2019-02-22T16:29:50.684Z,10.60
2019-02-22T16:32:21.745Z,10.60
2019-02-22T16:34:56.622Z,10.60
2019-02-22T16:37:27.044Z,10.60
2019-02-22T16:39:57.568Z,10.60
2019-02-22T16:42:27.990Z,10.50
2019-02-22T16:44:59.984Z,10.60
2019-02-22T16:47:39.582Z,10.60
2019-02-22T16:50:04.260Z,10.60
2019-02-22T16:52:34.741Z,10.60
2019-02-22T16:55:05.977Z,10.60
2019-02-22T16:57:36.239Z,10.60
2019-02-22T17:00:07.305Z,10.60
2019-02-22T17:02:40.361Z,10.60
2019-02-22T17:05:12.427Z,10.50
2019-02-22T17:07:42.822Z,10.50
2019-02-22T17:10:13.393Z,10.50
2019-02-22T17:12:43.746Z,10.50
2019-02-22T17:15:14.237Z,10.50
2019-02-22T17:17:44.625Z,10.40
2019-02-22T17:20:15.063Z,10.40
2019-02-22T17:22:46.450Z,10.30
2019-02-22T17:25:16.746Z,10.30
2019-02-22T17:27:47.121Z,10.30
2019-02-22T17:30:17.602Z,10.30
2019-02-22T17:32:47.886Z,10.30
2019-02-22T17:35:18.239Z,10.30
2019-02-22T17:37:48.659Z,10.30
2019-02-22T17:40:20.820Z,10.30
2019-02-22T17:42:51.239Z,10.30
2019-02-22T17:45:21.569Z,10.30
2019-02-22T17:47:52.165Z,10.30
2019-02-22T17:50:22.767Z,10.20
2019-02-22T17:52:53.243Z,10.30
2019-02-22T17:55:25.307Z,10.30
2019-02-22T17:57:55.873Z,10.30
2019-02-22T18:00:26.660Z,10.20
2019-02-22T18:02:57.149Z,10.20
2019-02-22T18:05:28.656Z,10.20
2019-02-22T18:07:59.114Z,10.20
2019-02-22T18:10:29.625Z,10.20
2019-02-22T18:13:00.060Z,10.10
2019-02-22T18:15:31.532Z,10.20
2019-02-22T18:18:01.906Z,10.10
2019-02-22T18:20:32.243Z,10.10
2019-02-22T18:23:02.711Z,10.10
2019-02-22T18:25:34.608Z,10.10
2019-02-22T18:28:06.056Z,10.00
2019-02-22T18:30:36.460Z,10.00
2019-02-22T18:33:06.882Z,10.00
2019-02-22T18:35:37.313Z,10.00
2019-02-22T18:38:07.709Z,10.00
2019-02-22T18:40:38.129Z,10.00
2019-02-22T18:43:08.848Z,10.00
2019-02-22T18:45:41.051Z,10.00
2019-02-22T18:48:11.468Z,10.00
2019-02-22T18:50:42.697Z,10.00
2019-02-22T18:53:13.281Z,10.00
2019-02-22T18:55:50.247Z,10.00
2019-02-22T18:58:17.223Z,9.90
2019-02-22T19:00:49.154Z,10.00
2019-02-22T19:03:19.740Z,9.90
2019-02-22T19:05:50.146Z,9.90
2019-02-22T19:08:31.826Z,9.90
2019-02-22T19:10:52.878Z,9.90
2019-02-22T19:13:23.253Z,9.80
2019-02-22T19:15:53.575Z,9.90
2019-02-22T19:18:24.072Z,9.90
2019-02-22T19:20:54.517Z,9.80
2019-02-22T19:23:26.010Z,9.80
2019-02-22T19:25:56.370Z,9.80
2019-02-22T19:28:29.087Z,9.80
2019-02-22T19:31:02.543Z,9.80
2019-02-22T19:33:32.817Z,9.80
2019-02-22T19:36:03.194Z,9.80
2019-02-22T19:38:33.543Z,9.80
2019-02-22T19:41:03.911Z,9.70
2019-02-22T19:43:34.164Z,9.70
2019-02-22T19:46:05.468Z,9.70
2019-02-22T19:48:35.900Z,9.70
2019-02-22T19:51:08.948Z,9.70
2019-02-22T19:53:39.172Z,9.70
2019-02-22T19:56:09.505Z,9.70
2019-02-22T19:58:39.988Z,9.80
2019-02-22T20:01:11.726Z,9.70
2019-02-22T20:03:42.239Z,9.70
2019-02-22T20:06:12.805Z,9.70
2019-02-22T20:08:46.136Z,9.70
2019-02-22T20:11:17.475Z,9.70
2019-02-22T20:13:47.858Z,9.70
2019-02-22T20:16:18.848Z,9.70
2019-02-22T20:18:49.255Z,9.70
2019-02-22T20:21:19.951Z,9.70
2019-02-22T20:23:50.379Z,9.70
2019-02-22T20:26:23.641Z,9.60
2019-02-22T20:28:54.156Z,9.70
2019-02-22T20:31:24.662Z,9.60
2019-02-22T20:33:55.011Z,9.60
2019-02-22T20:36:28.837Z,9.50
2019-02-22T20:38:59.358Z,9.50
2019-02-22T20:41:32.323Z,9.50
2019-02-22T20:44:02.793Z,9.40
2019-02-22T20:46:35.063Z,9.40
2019-02-22T20:49:08.973Z,9.40
2019-02-22T20:51:39.459Z,9.30
2019-02-22T20:54:09.988Z,9.30
2019-02-22T20:56:41.551Z,9.20
2019-02-22T20:59:12.060Z,9.10
2019-02-22T21:01:42.540Z,9.10
2019-02-22T21:04:15.513Z,8.90
2019-02-22T21:06:45.828Z,8.90
2019-02-22T21:09:16.329Z,8.80
2019-02-22T21:11:46.641Z,8.80
2019-02-22T21:14:17.193Z,8.70
2019-02-22T21:16:47.525Z,8.60
2019-02-22T21:19:18.094Z,8.60
2019-02-22T21:21:49.023Z,8.50
2019-02-22T21:24:21.485Z,8.50
2019-02-22T21:26:51.794Z,8.40
2019-02-22T21:29:22.289Z,8.40
2019-02-22T21:31:52.603Z,8.30
2019-02-22T21:34:22.937Z,8.30
2019-02-22T21:36:53.237Z,8.30
2019-02-22T21:39:23.723Z,8.20
2019-02-22T21:41:54.440Z,8.10
2019-02-22T21:44:24.792Z,8.10
2019-02-22T21:46:55.087Z,8.10
2019-02-22T21:49:25.543Z,8.00
2019-02-22T21:51:55.872Z,8.00
2019-02-22T21:54:26.184Z,7.90
2019-02-22T21:56:56.501Z,7.90
2019-02-22T21:59:27.232Z,7.90
2019-02-22T22:01:57.515Z,7.80
2019-02-22T22:04:27.804Z,7.80
2019-02-22T22:06:58.136Z,7.70
2019-02-22T22:09:28.507Z,7.70
2019-02-22T22:11:58.761Z,7.70
2019-02-22T22:14:29.046Z,7.70
2019-02-22T22:16:59.310Z,7.60
2019-02-22T22:19:29.547Z,7.50
2019-02-22T22:21:59.834Z,7.40
2019-02-22T22:24:30.219Z,7.40
2019-02-22T22:27:00.647Z,7.40
2019-02-22T22:29:31.200Z,7.40
2019-02-22T22:32:01.452Z,7.30
2019-02-22T22:34:31.808Z,7.30
2019-02-22T22:37:02.072Z,7.20
2019-02-22T22:39:32.440Z,7.20
2019-02-22T22:42:02.756Z,7.10
2019-02-22T22:44:34.236Z,7.10
2019-02-22T22:47:04.594Z,7.20
2019-02-22T22:49:34.874Z,7.10
2019-02-22T22:52:05.252Z,7.10
2019-02-22T22:54:35.606Z,7.00
2019-02-22T22:57:06.004Z,7.00
2019-02-22T22:59:36.347Z,7.00
2019-02-22T23:02:06.953Z,7.00
2019-02-22T23:04:37.302Z,6.90
2019-02-22T23:07:07.784Z,7.00
2019-02-22T23:09:38.107Z,6.90
2019-02-22T23:12:08.437Z,7.00
2019-02-22T23:14:38.820Z,6.90
2019-02-22T23:17:09.252Z,6.90
2019-02-22T23:19:39.739Z,6.90
2019-02-22T23:22:10.618Z,7.00
2019-02-22T23:24:41.023Z,6.90
2019-02-22T23:27:11.509Z,6.90
2019-02-22T23:29:41.903Z,6.90
2019-02-22T23:32:12.240Z,6.80
2019-02-22T23:34:43.717Z,6.70
2019-02-22T23:37:14.123Z,6.70
2019-02-22T23:39:44.519Z,6.70
2019-02-22T23:42:16.505Z,6.70
2019-02-22T23:44:46.797Z,6.70
2019-02-22T23:47:17.348Z,6.70
2019-02-22T23:49:47.899Z,6.70
2019-02-22T23:52:22.740Z,6.60
2019-02-22T23:54:55.840Z,6.60
2019-02-22T23:57:26.202Z,6.60
2019-02-22T23:59:56.563Z,6.50
